sensor_id;sensor_type;location;lat;lon;timestamp;temperature;humidity
59282;DHT22;45054;52.062;10.010;2022-09-01T00:01:20;14.80;99.90
59282;DHT22;45054;52.062;10.010;2022-09-01T00:03:45;14.60;99.90
59282;DHT22;45054;52.062;10.010;2022-09-01T00:06:11;14.50;99.90
59282;DHT22;45054;52.062;10.010;2022-09-01T00:08:36;14.50;99.90
59282;DHT22;45054;52.062;10.010;2022-09-01T00:11:02;14.40;99.90
59282;DHT22;45054;52.062;10.010;2022-09-01T00:13:27;14.10;99.90
59282;DHT22;45054;52.062;10.010;2022-09-01T00:15:53;14.00;99.90
59282;DHT22;45054;52.062;10.010;2022-09-01T00:18:20;13.90;99.90
59282;DHT22;45054;52.062;10.010;2022-09-01T00:20:45;13.80;99.90
59282;DHT22;45054;52.062;10.010;2022-09-01T00:23:11;13.80;99.90
59282;DHT22;45054;52.062;10.010;2022-09-01T00:25:36;13.80;99.90
59282;DHT22;45054;52.062;10.010;2022-09-01T00:28:02;13.80;99.90
59282;DHT22;45054;52.062;10.010;2022-09-01T00:30:27;13.70;99.90
59282;DHT22;45054;52.062;10.010;2022-09-01T00:32:52;13.70;99.90
59282;DHT22;45054;52.062;10.010;2022-09-01T00:35:19;13.70;99.90
59282;DHT22;45054;52.062;10.010;2022-09-01T00:37:45;13.70;99.90
59282;DHT22;45054;52.062;10.010;2022-09-01T00:40:11;13.70;99.90
59282;DHT22;45054;52.062;10.010;2022-09-01T00:42:37;13.60;99.90
59282;DHT22;45054;52.062;10.010;2022-09-01T00:45:03;13.50;99.90
59282;DHT22;45054;52.062;10.010;2022-09-01T00:47:28;13.50;99.90
59282;DHT22;45054;52.062;10.010;2022-09-01T00:49:54;13.30;99.90
59282;DHT22;45054;52.062;10.010;2022-09-01T00:52:22;13.20;99.90
59282;DHT22;45054;52.062;10.010;2022-09-01T00:54:54;13.20;99.90
59282;DHT22;45054;52.062;10.010;2022-09-01T00:57:21;13.10;99.90
59282;DHT22;45054;52.062;10.010;2022-09-01T00:59:48;13.10;99.90
59282;DHT22;45054;52.062;10.010;2022-09-01T01:02:14;13.10;99.90
59282;DHT22;45054;52.062;10.010;2022-09-01T01:04:39;13.00;99.90
59282;DHT22;45054;52.062;10.010;2022-09-01T01:07:05;13.00;99.90
59282;DHT22;45054;52.062;10.010;2022-09-01T01:09:33;13.10;99.90
59282;DHT22;45054;52.062;10.010;2022-09-01T01:11:59;13.10;99.90
59282;DHT22;45054;52.062;10.010;2022-09-01T01:14:26;13.10;99.90
59282;DHT22;45054;52.062;10.010;2022-09-01T01:16:52;13.00;99.90
59282;DHT22;45054;52.062;10.010;2022-09-01T01:19:18;13.00;99.90
59282;DHT22;45054;52.062;10.010;2022-09-01T01:21:48;13.00;99.90
59282;DHT22;45054;52.062;10.010;2022-09-01T01:24:18;12.90;99.90
59282;DHT22;45054;52.062;10.010;2022-09-01T01:26:44;12.90;99.90
59282;DHT22;45054;52.062;10.010;2022-09-01T01:29:10;12.90;99.90
59282;DHT22;45054;52.062;10.010;2022-09-01T01:31:35;12.80;99.90
59282;DHT22;45054;52.062;10.010;2022-09-01T01:34:00;12.80;99.90
59282;DHT22;45054;52.062;10.010;2022-09-01T01:36:27;12.70;99.90
59282;DHT22;45054;52.062;10.010;2022-09-01T01:38:53;12.70;99.90
59282;DHT22;45054;52.062;10.010;2022-09-01T01:41:20;12.70;99.90
59282;DHT22;45054;52.062;10.010;2022-09-01T01:43:45;12.60;99.90
59282;DHT22;45054;52.062;10.010;2022-09-01T01:46:11;12.60;99.90
59282;DHT22;45054;52.062;10.010;2022-09-01T01:48:38;12.60;99.90
59282;DHT22;45054;52.062;10.010;2022-09-01T01:51:05;12.50;99.90
59282;DHT22;45054;52.062;10.010;2022-09-01T01:53:31;12.50;99.90
59282;DHT22;45054;52.062;10.010;2022-09-01T01:55:57;12.40;99.90
59282;DHT22;45054;52.062;10.010;2022-09-01T01:58:24;12.30;99.90
59282;DHT22;45054;52.062;10.010;2022-09-01T02:00:51;12.30;99.90
59282;DHT22;45054;52.062;10.010;2022-09-01T02:03:17;12.30;99.90
59282;DHT22;45054;52.062;10.010;2022-09-01T02:05:43;12.30;99.90
59282;DHT22;45054;52.062;10.010;2022-09-01T02:08:09;12.30;99.90
59282;DHT22;45054;52.062;10.010;2022-09-01T02:10:37;12.30;99.90
59282;DHT22;45054;52.062;10.010;2022-09-01T02:13:03;12.40;99.90
59282;DHT22;45054;52.062;10.010;2022-09-01T02:15:31;12.40;99.90
59282;DHT22;45054;52.062;10.010;2022-09-01T02:17:57;12.40;99.90
59282;DHT22;45054;52.062;10.010;2022-09-01T02:20:22;12.40;99.90
59282;DHT22;45054;52.062;10.010;2022-09-01T02:22:48;12.40;99.90
59282;DHT22;45054;52.062;10.010;2022-09-01T02:25:13;12.40;99.90
59282;DHT22;45054;52.062;10.010;2022-09-01T02:27:39;12.40;99.90
59282;DHT22;45054;52.062;10.010;2022-09-01T02:30:05;12.40;99.90
59282;DHT22;45054;52.062;10.010;2022-09-01T02:32:32;12.40;99.90
59282;DHT22;45054;52.062;10.010;2022-09-01T02:34:57;12.30;99.90
59282;DHT22;45054;52.062;10.010;2022-09-01T02:37:23;12.30;99.90
59282;DHT22;45054;52.062;10.010;2022-09-01T02:39:48;12.30;99.90
59282;DHT22;45054;52.062;10.010;2022-09-01T02:42:13;12.20;99.90
59282;DHT22;45054;52.062;10.010;2022-09-01T02:44:39;12.20;99.90
59282;DHT22;45054;52.062;10.010;2022-09-01T02:47:04;12.20;99.90
59282;DHT22;45054;52.062;10.010;2022-09-01T02:49:31;12.10;99.90
59282;DHT22;45054;52.062;10.010;2022-09-01T02:51:58;12.10;99.90
59282;DHT22;45054;52.062;10.010;2022-09-01T02:54:24;12.10;99.90
59282;DHT22;45054;52.062;10.010;2022-09-01T02:56:50;12.10;99.90
59282;DHT22;45054;52.062;10.010;2022-09-01T02:59:15;12.00;99.90
59282;DHT22;45054;52.062;10.010;2022-09-01T03:01:41;12.00;99.90
59282;DHT22;45054;52.062;10.010;2022-09-01T03:04:07;12.00;99.90
59282;DHT22;45054;52.062;10.010;2022-09-01T03:06:34;12.00;99.90
59282;DHT22;45054;52.062;10.010;2022-09-01T03:09:00;12.00;99.90
59282;DHT22;45054;52.062;10.010;2022-09-01T03:11:26;11.90;99.90
59282;DHT22;45054;52.062;10.010;2022-09-01T03:13:52;11.90;99.90
59282;DHT22;45054;52.062;10.010;2022-09-01T03:16:18;11.90;99.90
59282;DHT22;45054;52.062;10.010;2022-09-01T03:18:43;11.80;99.90
59282;DHT22;45054;52.062;10.010;2022-09-01T03:21:09;11.80;99.90
59282;DHT22;45054;52.062;10.010;2022-09-01T03:23:36;11.80;99.90
59282;DHT22;45054;52.062;10.010;2022-09-01T03:26:02;11.80;99.90
59282;DHT22;45054;52.062;10.010;2022-09-01T03:28:27;11.90;99.90
59282;DHT22;45054;52.062;10.010;2022-09-01T03:30:54;11.90;99.90
59282;DHT22;45054;52.062;10.010;2022-09-01T03:33:19;11.90;99.90
59282;DHT22;45054;52.062;10.010;2022-09-01T03:35:46;11.90;99.90
59282;DHT22;45054;52.062;10.010;2022-09-01T03:38:12;11.90;99.90
59282;DHT22;45054;52.062;10.010;2022-09-01T03:40:40;11.90;99.90
59282;DHT22;45054;52.062;10.010;2022-09-01T03:43:06;11.80;99.90
59282;DHT22;45054;52.062;10.010;2022-09-01T03:45:32;11.80;99.90
59282;DHT22;45054;52.062;10.010;2022-09-01T03:47:57;11.80;99.90
59282;DHT22;45054;52.062;10.010;2022-09-01T03:50:23;11.60;99.90
59282;DHT22;45054;52.062;10.010;2022-09-01T03:52:50;11.60;99.90
59282;DHT22;45054;52.062;10.010;2022-09-01T03:55:16;11.60;99.90
59282;DHT22;45054;52.062;10.010;2022-09-01T03:57:43;11.70;99.90
59282;DHT22;45054;52.062;10.010;2022-09-01T04:00:09;11.70;99.90
59282;DHT22;45054;52.062;10.010;2022-09-01T04:02:35;11.70;99.90
59282;DHT22;45054;52.062;10.010;2022-09-01T04:05:00;11.60;99.90
59282;DHT22;45054;52.062;10.010;2022-09-01T04:07:26;11.50;99.90
59282;DHT22;45054;52.062;10.010;2022-09-01T04:09:51;11.50;99.90
59282;DHT22;45054;52.062;10.010;2022-09-01T04:12:16;11.40;99.90
59282;DHT22;45054;52.062;10.010;2022-09-01T04:14:43;11.40;99.90
59282;DHT22;45054;52.062;10.010;2022-09-01T04:17:09;11.40;99.90
59282;DHT22;45054;52.062;10.010;2022-09-01T04:19:35;11.30;99.90
59282;DHT22;45054;52.062;10.010;2022-09-01T04:22:01;11.30;99.90
59282;DHT22;45054;52.062;10.010;2022-09-01T04:24:27;11.40;99.90
59282;DHT22;45054;52.062;10.010;2022-09-01T04:26:53;11.40;99.90
59282;DHT22;45054;52.062;10.010;2022-09-01T04:29:19;11.40;99.90
59282;DHT22;45054;52.062;10.010;2022-09-01T04:31:46;11.40;99.90
59282;DHT22;45054;52.062;10.010;2022-09-01T04:34:12;11.50;99.90
59282;DHT22;45054;52.062;10.010;2022-09-01T04:36:37;11.50;99.90
59282;DHT22;45054;52.062;10.010;2022-09-01T04:39:03;11.50;99.90
59282;DHT22;45054;52.062;10.010;2022-09-01T04:41:30;11.40;99.90
59282;DHT22;45054;52.062;10.010;2022-09-01T04:43:56;11.50;99.90
59282;DHT22;45054;52.062;10.010;2022-09-01T04:46:22;11.50;99.90
59282;DHT22;45054;52.062;10.010;2022-09-01T04:48:51;11.60;99.90
59282;DHT22;45054;52.062;10.010;2022-09-01T04:51:17;11.70;99.90
59282;DHT22;45054;52.062;10.010;2022-09-01T04:53:42;11.60;99.90
59282;DHT22;45054;52.062;10.010;2022-09-01T04:56:08;11.60;99.90
59282;DHT22;45054;52.062;10.010;2022-09-01T04:58:33;11.60;99.90
59282;DHT22;45054;52.062;10.010;2022-09-01T05:00:59;11.50;99.90
59282;DHT22;45054;52.062;10.010;2022-09-01T05:03:24;11.50;99.90
59282;DHT22;45054;52.062;10.010;2022-09-01T05:05:51;11.50;99.90
59282;DHT22;45054;52.062;10.010;2022-09-01T05:08:19;11.50;99.90
59282;DHT22;45054;52.062;10.010;2022-09-01T05:10:45;11.50;99.90
59282;DHT22;45054;52.062;10.010;2022-09-01T05:13:12;11.50;99.90
59282;DHT22;45054;52.062;10.010;2022-09-01T05:15:38;11.60;99.90
59282;DHT22;45054;52.062;10.010;2022-09-01T05:18:04;11.60;99.90
59282;DHT22;45054;52.062;10.010;2022-09-01T05:20:29;11.60;99.90
59282;DHT22;45054;52.062;10.010;2022-09-01T05:22:56;11.60;99.90
59282;DHT22;45054;52.062;10.010;2022-09-01T05:25:22;11.60;99.90
59282;DHT22;45054;52.062;10.010;2022-09-01T05:27:47;11.60;99.90
59282;DHT22;45054;52.062;10.010;2022-09-01T05:30:12;11.60;99.90
59282;DHT22;45054;52.062;10.010;2022-09-01T05:32:38;11.60;99.90
59282;DHT22;45054;52.062;10.010;2022-09-01T05:35:03;11.60;99.90
59282;DHT22;45054;52.062;10.010;2022-09-01T05:37:29;11.70;99.90
59282;DHT22;45054;52.062;10.010;2022-09-01T05:39:56;11.70;99.90
59282;DHT22;45054;52.062;10.010;2022-09-01T05:42:21;11.80;99.90
59282;DHT22;45054;52.062;10.010;2022-09-01T05:44:47;11.80;99.90
59282;DHT22;45054;52.062;10.010;2022-09-01T05:47:12;11.80;99.90
59282;DHT22;45054;52.062;10.010;2022-09-01T05:49:38;11.90;99.90
59282;DHT22;45054;52.062;10.010;2022-09-01T05:52:03;11.90;99.90
59282;DHT22;45054;52.062;10.010;2022-09-01T05:54:29;11.90;99.90
59282;DHT22;45054;52.062;10.010;2022-09-01T05:56:56;12.00;99.90
59282;DHT22;45054;52.062;10.010;2022-09-01T05:59:21;12.00;99.90
59282;DHT22;45054;52.062;10.010;2022-09-01T06:01:47;12.00;99.90
59282;DHT22;45054;52.062;10.010;2022-09-01T06:04:12;12.10;99.90
59282;DHT22;45054;52.062;10.010;2022-09-01T06:06:39;12.20;99.90
59282;DHT22;45054;52.062;10.010;2022-09-01T06:09:06;12.20;99.90
59282;DHT22;45054;52.062;10.010;2022-09-01T06:11:32;12.30;99.90
59282;DHT22;45054;52.062;10.010;2022-09-01T06:13:59;12.40;99.90
59282;DHT22;45054;52.062;10.010;2022-09-01T06:16:25;12.50;99.90
59282;DHT22;45054;52.062;10.010;2022-09-01T06:18:50;12.70;99.90
59282;DHT22;45054;52.062;10.010;2022-09-01T06:21:16;12.70;99.90
59282;DHT22;45054;52.062;10.010;2022-09-01T06:23:41;12.80;99.90
59282;DHT22;45054;52.062;10.010;2022-09-01T06:26:07;12.80;99.90
59282;DHT22;45054;52.062;10.010;2022-09-01T06:28:39;12.80;99.90
59282;DHT22;45054;52.062;10.010;2022-09-01T06:31:06;12.90;99.90
59282;DHT22;45054;52.062;10.010;2022-09-01T06:33:32;12.90;99.90
59282;DHT22;45054;52.062;10.010;2022-09-01T06:35:59;12.90;99.90
59282;DHT22;45054;52.062;10.010;2022-09-01T06:38:25;13.00;99.90
59282;DHT22;45054;52.062;10.010;2022-09-01T06:40:58;13.00;99.90
59282;DHT22;45054;52.062;10.010;2022-09-01T06:43:23;13.10;99.90
59282;DHT22;45054;52.062;10.010;2022-09-01T06:45:49;13.10;99.90
59282;DHT22;45054;52.062;10.010;2022-09-01T06:48:15;13.20;99.90
59282;DHT22;45054;52.062;10.010;2022-09-01T06:50:41;13.20;99.90
59282;DHT22;45054;52.062;10.010;2022-09-01T06:53:06;13.40;99.90
59282;DHT22;45054;52.062;10.010;2022-09-01T06:55:32;13.50;99.90
59282;DHT22;45054;52.062;10.010;2022-09-01T06:57:58;13.60;99.90
59282;DHT22;45054;52.062;10.010;2022-09-01T07:00:24;13.60;99.90
59282;DHT22;45054;52.062;10.010;2022-09-01T07:02:51;13.70;99.90
59282;DHT22;45054;52.062;10.010;2022-09-01T07:05:18;13.80;99.90
59282;DHT22;45054;52.062;10.010;2022-09-01T07:07:45;13.90;99.90
59282;DHT22;45054;52.062;10.010;2022-09-01T07:10:10;13.90;99.90
59282;DHT22;45054;52.062;10.010;2022-09-01T07:12:36;14.00;99.90
59282;DHT22;45054;52.062;10.010;2022-09-01T07:15:02;14.20;99.90
59282;DHT22;45054;52.062;10.010;2022-09-01T07:17:27;14.30;99.90
59282;DHT22;45054;52.062;10.010;2022-09-01T07:19:52;14.40;99.90
59282;DHT22;45054;52.062;10.010;2022-09-01T07:22:19;14.50;99.90
59282;DHT22;45054;52.062;10.010;2022-09-01T07:24:45;14.60;99.90
59282;DHT22;45054;52.062;10.010;2022-09-01T07:27:10;14.60;99.90
59282;DHT22;45054;52.062;10.010;2022-09-01T07:29:36;14.70;99.90
59282;DHT22;45054;52.062;10.010;2022-09-01T07:32:02;14.80;99.90
59282;DHT22;45054;52.062;10.010;2022-09-01T07:34:27;14.90;99.90
59282;DHT22;45054;52.062;10.010;2022-09-01T07:36:53;15.00;99.90
59282;DHT22;45054;52.062;10.010;2022-09-01T07:39:19;15.10;99.90
59282;DHT22;45054;52.062;10.010;2022-09-01T07:41:45;15.20;99.90
59282;DHT22;45054;52.062;10.010;2022-09-01T07:44:10;15.30;99.90
59282;DHT22;45054;52.062;10.010;2022-09-01T07:46:36;15.50;99.90
59282;DHT22;45054;52.062;10.010;2022-09-01T07:49:01;15.60;99.90
59282;DHT22;45054;52.062;10.010;2022-09-01T07:51:28;15.60;99.90
59282;DHT22;45054;52.062;10.010;2022-09-01T07:53:53;15.70;99.90
59282;DHT22;45054;52.062;10.010;2022-09-01T07:56:21;15.80;99.90
59282;DHT22;45054;52.062;10.010;2022-09-01T07:58:47;15.90;99.90
59282;DHT22;45054;52.062;10.010;2022-09-01T08:01:13;16.00;99.90
59282;DHT22;45054;52.062;10.010;2022-09-01T08:03:39;16.00;99.90
59282;DHT22;45054;52.062;10.010;2022-09-01T08:06:06;16.10;99.90
59282;DHT22;45054;52.062;10.010;2022-09-01T08:08:32;16.20;99.90
59282;DHT22;45054;52.062;10.010;2022-09-01T08:10:57;16.30;99.90
59282;DHT22;45054;52.062;10.010;2022-09-01T08:13:24;16.40;99.90
59282;DHT22;45054;52.062;10.010;2022-09-01T08:15:50;16.50;99.90
59282;DHT22;45054;52.062;10.010;2022-09-01T08:18:15;16.50;99.90
59282;DHT22;45054;52.062;10.010;2022-09-01T08:20:41;16.60;99.90
59282;DHT22;45054;52.062;10.010;2022-09-01T08:23:07;16.60;99.90
59282;DHT22;45054;52.062;10.010;2022-09-01T08:25:34;16.80;99.90
59282;DHT22;45054;52.062;10.010;2022-09-01T08:28:01;16.90;99.90
59282;DHT22;45054;52.062;10.010;2022-09-01T08:30:28;17.00;99.90
59282;DHT22;45054;52.062;10.010;2022-09-01T08:32:53;17.00;99.90
59282;DHT22;45054;52.062;10.010;2022-09-01T08:35:19;17.10;99.90
59282;DHT22;45054;52.062;10.010;2022-09-01T08:37:44;17.20;99.90
59282;DHT22;45054;52.062;10.010;2022-09-01T08:40:11;17.30;99.90
59282;DHT22;45054;52.062;10.010;2022-09-01T08:42:41;17.40;99.90
59282;DHT22;45054;52.062;10.010;2022-09-01T08:45:10;17.60;99.90
59282;DHT22;45054;52.062;10.010;2022-09-01T08:47:38;17.70;99.90
59282;DHT22;45054;52.062;10.010;2022-09-01T08:50:04;17.70;99.90
59282;DHT22;45054;52.062;10.010;2022-09-01T08:52:30;17.70;99.90
59282;DHT22;45054;52.062;10.010;2022-09-01T08:54:57;17.80;99.90
59282;DHT22;45054;52.062;10.010;2022-09-01T08:57:25;17.80;99.90
59282;DHT22;45054;52.062;10.010;2022-09-01T08:59:53;17.90;99.90
59282;DHT22;45054;52.062;10.010;2022-09-01T09:02:22;18.00;99.90
59282;DHT22;45054;52.062;10.010;2022-09-01T09:04:58;18.00;99.90
59282;DHT22;45054;52.062;10.010;2022-09-01T09:07:31;18.00;99.90
59282;DHT22;45054;52.062;10.010;2022-09-01T09:10:02;17.90;99.90
59282;DHT22;45054;52.062;10.010;2022-09-01T09:12:33;18.00;99.90
59282;DHT22;45054;52.062;10.010;2022-09-01T09:15:02;18.00;99.90
59282;DHT22;45054;52.062;10.010;2022-09-01T09:17:32;18.00;99.90
59282;DHT22;45054;52.062;10.010;2022-09-01T09:20:02;18.10;99.90
59282;DHT22;45054;52.062;10.010;2022-09-01T09:22:27;18.30;99.90
59282;DHT22;45054;52.062;10.010;2022-09-01T09:24:54;18.40;99.90
59282;DHT22;45054;52.062;10.010;2022-09-01T09:27:23;18.60;99.90
59282;DHT22;45054;52.062;10.010;2022-09-01T09:29:49;18.70;99.90
59282;DHT22;45054;52.062;10.010;2022-09-01T09:32:15;18.80;99.90
59282;DHT22;45054;52.062;10.010;2022-09-01T09:34:41;18.80;99.90
59282;DHT22;45054;52.062;10.010;2022-09-01T09:37:19;18.70;99.90
59282;DHT22;45054;52.062;10.010;2022-09-01T09:39:45;18.80;99.90
59282;DHT22;45054;52.062;10.010;2022-09-01T09:42:25;18.90;99.90
59282;DHT22;45054;52.062;10.010;2022-09-01T09:44:51;19.10;99.90
59282;DHT22;45054;52.062;10.010;2022-09-01T09:47:32;19.20;99.90
59282;DHT22;45054;52.062;10.010;2022-09-01T09:50:01;19.30;99.90
59282;DHT22;45054;52.062;10.010;2022-09-01T09:52:35;19.40;99.90
59282;DHT22;45054;52.062;10.010;2022-09-01T09:55:02;19.50;99.90
59282;DHT22;45054;52.062;10.010;2022-09-01T09:57:28;19.50;99.90
59282;DHT22;45054;52.062;10.010;2022-09-01T09:59:56;19.60;99.90
59282;DHT22;45054;52.062;10.010;2022-09-01T10:02:24;19.60;99.90
59282;DHT22;45054;52.062;10.010;2022-09-01T10:04:51;19.70;99.90
59282;DHT22;45054;52.062;10.010;2022-09-01T10:07:21;19.70;99.90
59282;DHT22;45054;52.062;10.010;2022-09-01T10:09:49;19.80;99.90
59282;DHT22;45054;52.062;10.010;2022-09-01T10:12:14;20.00;99.90
59282;DHT22;45054;52.062;10.010;2022-09-01T10:14:41;20.10;99.90
59282;DHT22;45054;52.062;10.010;2022-09-01T10:17:09;20.10;99.90
59282;DHT22;45054;52.062;10.010;2022-09-01T10:19:35;20.20;99.90
59282;DHT22;45054;52.062;10.010;2022-09-01T10:22:01;20.20;99.90
59282;DHT22;45054;52.062;10.010;2022-09-01T10:24:27;20.40;99.90
59282;DHT22;45054;52.062;10.010;2022-09-01T10:26:55;20.50;99.90
59282;DHT22;45054;52.062;10.010;2022-09-01T10:29:22;20.40;99.90
59282;DHT22;45054;52.062;10.010;2022-09-01T10:31:49;20.30;99.90
59282;DHT22;45054;52.062;10.010;2022-09-01T10:34:16;20.40;99.90
59282;DHT22;45054;52.062;10.010;2022-09-01T10:36:42;20.50;99.90
59282;DHT22;45054;52.062;10.010;2022-09-01T10:39:09;20.50;99.90
59282;DHT22;45054;52.062;10.010;2022-09-01T10:41:48;20.50;99.90
59282;DHT22;45054;52.062;10.010;2022-09-01T10:44:17;20.50;99.90
59282;DHT22;45054;52.062;10.010;2022-09-01T10:46:44;20.70;99.90
59282;DHT22;45054;52.062;10.010;2022-09-01T10:51:53;20.90;99.90
59282;DHT22;45054;52.062;10.010;2022-09-01T10:57:03;21.20;99.90
59282;DHT22;45054;52.062;10.010;2022-09-01T10:59:31;21.30;99.90
59282;DHT22;45054;52.062;10.010;2022-09-01T11:02:04;21.40;99.90
59282;DHT22;45054;52.062;10.010;2022-09-01T11:10:05;21.50;99.90
59282;DHT22;45054;52.062;10.010;2022-09-01T11:12:47;21.60;99.90
59282;DHT22;45054;52.062;10.010;2022-09-01T11:15:46;21.70;99.90
59282;DHT22;45054;52.062;10.010;2022-09-01T11:18:13;21.70;99.90
59282;DHT22;45054;52.062;10.010;2022-09-01T11:20:39;21.90;99.40
59282;DHT22;45054;52.062;10.010;2022-09-01T11:23:06;22.00;99.40
59282;DHT22;45054;52.062;10.010;2022-09-01T11:25:37;22.10;99.90
59282;DHT22;45054;52.062;10.010;2022-09-01T11:28:10;22.30;99.50
59282;DHT22;45054;52.062;10.010;2022-09-01T11:30:58;22.40;99.10
59282;DHT22;45054;52.062;10.010;2022-09-01T11:33:34;22.60;99.30
59282;DHT22;45054;52.062;10.010;2022-09-01T11:36:04;22.60;99.30
59282;DHT22;45054;52.062;10.010;2022-09-01T11:38:31;22.60;99.60
59282;DHT22;45054;52.062;10.010;2022-09-01T11:40:58;22.60;97.90
59282;DHT22;45054;52.062;10.010;2022-09-01T11:43:24;22.60;98.10
59282;DHT22;45054;52.062;10.010;2022-09-01T11:45:53;22.70;98.10
59282;DHT22;45054;52.062;10.010;2022-09-01T11:48:22;22.70;96.20
59282;DHT22;45054;52.062;10.010;2022-09-01T11:50:55;22.80;96.20
59282;DHT22;45054;52.062;10.010;2022-09-01T11:53:21;22.80;96.60
59282;DHT22;45054;52.062;10.010;2022-09-01T11:55:49;22.80;95.40
59282;DHT22;45054;52.062;10.010;2022-09-01T11:58:27;22.90;94.90
59282;DHT22;45054;52.062;10.010;2022-09-01T12:00:54;23.00;96.30
59282;DHT22;45054;52.062;10.010;2022-09-01T12:03:21;23.20;95.60
59282;DHT22;45054;52.062;10.010;2022-09-01T12:05:51;23.40;95.30
59282;DHT22;45054;52.062;10.010;2022-09-01T12:08:17;23.50;93.70
59282;DHT22;45054;52.062;10.010;2022-09-01T12:10:43;23.30;93.20
59282;DHT22;45054;52.062;10.010;2022-09-01T12:13:10;23.00;93.80
59282;DHT22;45054;52.062;10.010;2022-09-01T12:15:37;22.90;93.90
59282;DHT22;45054;52.062;10.010;2022-09-01T12:18:10;23.00;94.10
59282;DHT22;45054;52.062;10.010;2022-09-01T12:20:36;23.10;93.70
59282;DHT22;45054;52.062;10.010;2022-09-01T12:23:13;23.10;92.80
59282;DHT22;45054;52.062;10.010;2022-09-01T12:25:39;23.00;93.50
59282;DHT22;45054;52.062;10.010;2022-09-01T12:28:05;22.70;93.70
59282;DHT22;45054;52.062;10.010;2022-09-01T12:30:31;22.40;93.70
59282;DHT22;45054;52.062;10.010;2022-09-01T12:32:56;22.40;94.40
59282;DHT22;45054;52.062;10.010;2022-09-01T12:35:23;22.70;92.80
59282;DHT22;45054;52.062;10.010;2022-09-01T12:37:49;22.70;92.10
59282;DHT22;45054;52.062;10.010;2022-09-01T12:40:23;22.60;92.50
59282;DHT22;45054;52.062;10.010;2022-09-01T12:42:50;22.50;93.50
59282;DHT22;45054;52.062;10.010;2022-09-01T12:45:34;22.30;93.50
59282;DHT22;45054;52.062;10.010;2022-09-01T12:47:59;22.20;94.60
59282;DHT22;45054;52.062;10.010;2022-09-01T12:53:16;22.40;95.00
59282;DHT22;45054;52.062;10.010;2022-09-01T12:55:52;22.40;94.00
59282;DHT22;45054;52.062;10.010;2022-09-01T12:58:19;22.60;94.90
59282;DHT22;45054;52.062;10.010;2022-09-01T13:00:53;22.90;93.80
59282;DHT22;45054;52.062;10.010;2022-09-01T13:03:18;23.20;92.40
59282;DHT22;45054;52.062;10.010;2022-09-01T13:05:44;23.40;92.60
59282;DHT22;45054;52.062;10.010;2022-09-01T13:08:11;23.50;93.10
59282;DHT22;45054;52.062;10.010;2022-09-01T13:10:38;23.60;91.70
59282;DHT22;45054;52.062;10.010;2022-09-01T13:13:24;23.60;92.30
59282;DHT22;45054;52.062;10.010;2022-09-01T13:15:50;23.40;92.00
59282;DHT22;45054;52.062;10.010;2022-09-01T13:18:16;23.20;93.00
59282;DHT22;45054;52.062;10.010;2022-09-01T13:20:42;23.00;92.50
59282;DHT22;45054;52.062;10.010;2022-09-01T13:23:08;22.80;93.90
59282;DHT22;45054;52.062;10.010;2022-09-01T13:25:33;22.80;92.70
59282;DHT22;45054;52.062;10.010;2022-09-01T13:27:59;22.80;93.20
59282;DHT22;45054;52.062;10.010;2022-09-01T13:30:26;22.90;93.70
59282;DHT22;45054;52.062;10.010;2022-09-01T13:32:52;23.10;91.60
59282;DHT22;45054;52.062;10.010;2022-09-01T13:35:18;23.30;91.70
59282;DHT22;45054;52.062;10.010;2022-09-01T13:37:44;23.30;91.80
59282;DHT22;45054;52.062;10.010;2022-09-01T13:40:10;23.20;91.70
59282;DHT22;45054;52.062;10.010;2022-09-01T13:42:35;23.00;93.70
59282;DHT22;45054;52.062;10.010;2022-09-01T13:45:01;23.20;93.20
59282;DHT22;45054;52.062;10.010;2022-09-01T13:47:28;23.50;93.00
59282;DHT22;45054;52.062;10.010;2022-09-01T13:49:53;23.80;92.50
59282;DHT22;45054;52.062;10.010;2022-09-01T13:52:19;24.20;91.00
59282;DHT22;45054;52.062;10.010;2022-09-01T13:54:44;24.30;90.50
59282;DHT22;45054;52.062;10.010;2022-09-01T13:57:10;24.30;90.50
59282;DHT22;45054;52.062;10.010;2022-09-01T13:59:36;24.30;91.30
59282;DHT22;45054;52.062;10.010;2022-09-01T14:02:01;24.40;91.40
59282;DHT22;45054;52.062;10.010;2022-09-01T14:04:28;24.60;90.70
59282;DHT22;45054;52.062;10.010;2022-09-01T14:06:54;24.80;90.30
59282;DHT22;45054;52.062;10.010;2022-09-01T14:09:19;24.70;89.70
59282;DHT22;45054;52.062;10.010;2022-09-01T14:11:45;24.70;89.70
59282;DHT22;45054;52.062;10.010;2022-09-01T14:14:10;24.80;90.10
59282;DHT22;45054;52.062;10.010;2022-09-01T14:16:36;24.80;89.50
59282;DHT22;45054;52.062;10.010;2022-09-01T14:19:02;24.90;90.30
59282;DHT22;45054;52.062;10.010;2022-09-01T14:21:28;24.90;88.70
59282;DHT22;45054;52.062;10.010;2022-09-01T14:23:54;24.70;87.30
59282;DHT22;45054;52.062;10.010;2022-09-01T14:26:19;24.50;89.50
59282;DHT22;45054;52.062;10.010;2022-09-01T14:28:45;24.70;88.30
59282;DHT22;45054;52.062;10.010;2022-09-01T14:31:11;25.10;88.40
59282;DHT22;45054;52.062;10.010;2022-09-01T14:33:37;25.40;86.70
59282;DHT22;45054;52.062;10.010;2022-09-01T14:36:03;25.20;87.30
59282;DHT22;45054;52.062;10.010;2022-09-01T14:38:30;25.30;85.20
59282;DHT22;45054;52.062;10.010;2022-09-01T14:40:55;26.30;85.10
59282;DHT22;45054;52.062;10.010;2022-09-01T14:43:21;27.00;82.70
59282;DHT22;45054;52.062;10.010;2022-09-01T14:45:47;28.10;83.60
59282;DHT22;45054;52.062;10.010;2022-09-01T14:48:13;29.60;79.50
59282;DHT22;45054;52.062;10.010;2022-09-01T14:50:39;30.70;76.60
59282;DHT22;45054;52.062;10.010;2022-09-01T14:53:06;31.10;74.30
59282;DHT22;45054;52.062;10.010;2022-09-01T14:55:33;32.10;69.70
59282;DHT22;45054;52.062;10.010;2022-09-01T14:57:58;32.90;66.10
59282;DHT22;45054;52.062;10.010;2022-09-01T15:00:24;31.80;69.10
59282;DHT22;45054;52.062;10.010;2022-09-01T15:02:50;32.00;65.90
59282;DHT22;45054;52.062;10.010;2022-09-01T15:05:16;33.10;65.30
59282;DHT22;45054;52.062;10.010;2022-09-01T15:07:42;33.70;62.50
59282;DHT22;45054;52.062;10.010;2022-09-01T15:10:08;35.00;62.60
59282;DHT22;45054;52.062;10.010;2022-09-01T15:12:35;35.70;59.10
59282;DHT22;45054;52.062;10.010;2022-09-01T15:15:01;35.60;57.70
59282;DHT22;45054;52.062;10.010;2022-09-01T15:17:27;35.90;57.70
59282;DHT22;45054;52.062;10.010;2022-09-01T15:19:52;36.20;57.50
59282;DHT22;45054;52.062;10.010;2022-09-01T15:22:18;36.60;55.30
59282;DHT22;45054;52.062;10.010;2022-09-01T15:24:44;36.60;54.50
59282;DHT22;45054;52.062;10.010;2022-09-01T15:27:09;35.90;55.00